Dodge City Regional Airport Dodge City US
ICAO: KDDC
IATA: DDC
Category: Medium
Scheduled Services: Yes

Elevation: 2594 ft
TransAlt. 18000 ft.

Airport Communications:
ASOS:118.525
KANSAS CITY CNTR:125.2
WICHITA RDO:122.35
CTAF/UNICOM:122.7

KDDC Zoom In..

Runways:

(A) RW 02 length 4649 ft width 100 ft
---- / hdg 24

(B) RW 14 length 6899 ft width 100 ft
ILS 111.70 / hdg 146

(C) RW 20 length 4649 ft width 100 ft
---- / hdg 204

(D) RW 32 length 6899 ft width 100 ft
---- / hdg 326

Location; KDDC
Day. 22 / Time. 00.52 Zulu
* Altimeter: 30.17
* Temperature: 07° c. 44.6°f.
* Wind from: 030° Speed 08 kn.
Dewpoint: 06° c.
Visibility: 3 Statute Miles.
Clouds: Few 500 ft.
Clouds: Overcast 1100 ft.
Conditions: Mist.

KDDC 220052Z AUTO 03008KT 3SM BR FEW005 OVC011 07/06 A3017 RMK AO2 RAB16E27 CIG 007V013 SLP220 P0000 T00670056


Wind From 030°
Speed 08 kn.

  YouTube Music Video
 
jpsmedia.com for Web Design  worldairports.se 2018   terms of use